OEFAA LIML-LIPB
Flight info
| Callsign | OEFAA |
|---|---|
| Flight time | 0h 33m |
| Altitude | 34000 |
| Route | NESTI DCT ALESE |
| Aircraft | HDJT/L-SABDGRWY/H |
Departure
| Time | 2026-05-06 15:13 |
|---|---|
| Airport | Milano Linate Airport (LIML) |
Arrival
| Time | 2026-05-06 15:46 |
|---|---|
| Airport | Bolzano Airport (LIPB) |
| Time | Latitude | Longitude | Altitude | Speed | Heading |
|---|---|---|---|---|---|
| 2026-05-06 14:40 | 45.45447 | 9.26343 | 355 ft | 0 kts | 64° |
| 2026-05-06 14:56 | 45.45447 | 9.26345 | 355 ft | 0 kts | 77° |
| 2026-05-06 14:56 | 45.45445 | 9.26347 | 355 ft | 1 kts | 160° |
| 2026-05-06 14:56 | 45.45442 | 9.26339 | 355 ft | 4 kts | 257° |
| 2026-05-06 14:57 | 45.45432 | 9.26302 | 358 ft | 3 kts | 246° |
| 2026-05-06 14:57 | 45.45413 | 9.26288 | 357 ft | 0 kts | 167° |
| 2026-05-06 14:57 | 45.45412 | 9.26286 | 357 ft | 0 kts | 225° |
| 2026-05-06 14:57 | 45.45413 | 9.26282 | 358 ft | 1 kts | 341° |
| 2026-05-06 14:58 | 45.45461 | 9.26256 | 355 ft | 10 kts | 338° |
| 2026-05-06 14:58 | 45.45520 | 9.26218 | 359 ft | 9 kts | 333° |
| 2026-05-06 14:58 | 45.45568 | 9.26179 | 355 ft | 7 kts | 329° |
| 2026-05-06 14:58 | 45.45611 | 9.26163 | 355 ft | 6 kts | 348° |
| 2026-05-06 14:59 | 45.45658 | 9.26157 | 358 ft | 8 kts | 355° |
| 2026-05-06 14:59 | 45.45726 | 9.26149 | 359 ft | 11 kts | 354° |
| 2026-05-06 14:59 | 45.45816 | 9.26148 | 354 ft | 15 kts | 9° |
| 2026-05-06 14:59 | 45.45909 | 9.26205 | 359 ft | 13 kts | 39° |
| 2026-05-06 15:00 | 45.45972 | 9.26281 | 354 ft | 11 kts | 41° |
| 2026-05-06 15:00 | 45.46017 | 9.26357 | 354 ft | 9 kts | 68° |
| 2026-05-06 15:00 | 45.46048 | 9.26429 | 354 ft | 8 kts | 65° |
| 2026-05-06 15:00 | 45.46064 | 9.26504 | 354 ft | 8 kts | 85° |
| 2026-05-06 15:01 | 45.46066 | 9.26553 | 354 ft | 7 kts | 91° |
| 2026-05-06 15:01 | 45.46066 | 9.26636 | 354 ft | 10 kts | 91° |
| 2026-05-06 15:01 | 45.46065 | 9.26753 | 354 ft | 13 kts | 81° |
| 2026-05-06 15:01 | 45.46065 | 9.26895 | 354 ft | 16 kts | 90° |
| 2026-05-06 15:02 | 45.46037 | 9.27098 | 357 ft | 14 kts | 104° |
| 2026-05-06 15:02 | 45.46024 | 9.27181 | 356 ft | 11 kts | 100° |
| 2026-05-06 15:02 | 45.46020 | 9.27226 | 354 ft | 0 kts | 94° |
| 2026-05-06 15:03 | 45.46020 | 9.27228 | 354 ft | 1 kts | 94° |
| 2026-05-06 15:03 | 45.46018 | 9.27282 | 354 ft | 10 kts | 90° |
| 2026-05-06 15:03 | 45.46017 | 9.27414 | 354 ft | 15 kts | 91° |
| 2026-05-06 15:03 | 45.46015 | 9.27547 | 354 ft | 12 kts | 91° |
| 2026-05-06 15:04 | 45.45995 | 9.27651 | 359 ft | 11 kts | 116° |
| 2026-05-06 15:04 | 45.45955 | 9.27733 | 360 ft | 10 kts | 129° |
| 2026-05-06 15:04 | 45.45914 | 9.27803 | 361 ft | 9 kts | 114° |
| 2026-05-06 15:04 | 45.45907 | 9.27886 | 355 ft | 9 kts | 91° |
| 2026-05-06 15:05 | 45.45901 | 9.27971 | 355 ft | 9 kts | 131° |
| 2026-05-06 15:05 | 45.45841 | 9.27984 | 355 ft | 9 kts | 182° |
| 2026-05-06 15:05 | 45.45774 | 9.27983 | 358 ft | 10 kts | 181° |
| 2026-05-06 15:05 | 45.45701 | 9.27982 | 355 ft | 11 kts | 181° |
| 2026-05-06 15:06 | 45.45624 | 9.27981 | 356 ft | 11 kts | 179° |
| 2026-05-06 15:06 | 45.45542 | 9.27980 | 355 ft | 12 kts | 183° |
| 2026-05-06 15:06 | 45.45456 | 9.27977 | 355 ft | 13 kts | 180° |
| 2026-05-06 15:06 | 45.45369 | 9.27962 | 355 ft | 13 kts | 204° |
| 2026-05-06 15:07 | 45.45285 | 9.27905 | 355 ft | 14 kts | 206° |
| 2026-05-06 15:07 | 45.45187 | 9.27869 | 355 ft | 16 kts | 180° |
| 2026-05-06 15:07 | 45.45069 | 9.27881 | 355 ft | 18 kts | 175° |
| 2026-05-06 15:07 | 45.44940 | 9.27902 | 355 ft | 19 kts | 162° |
| 2026-05-06 15:08 | 45.44808 | 9.27943 | 355 ft | 20 kts | 176° |
| 2026-05-06 15:08 | 45.44662 | 9.27959 | 355 ft | 22 kts | 175° |
| 2026-05-06 15:08 | 45.44508 | 9.27975 | 355 ft | 22 kts | 175° |
| 2026-05-06 15:08 | 45.44372 | 9.27989 | 355 ft | 17 kts | 176° |
| 2026-05-06 15:09 | 45.44264 | 9.28001 | 359 ft | 14 kts | 176° |
| 2026-05-06 15:09 | 45.44177 | 9.28010 | 358 ft | 11 kts | 174° |
| 2026-05-06 15:09 | 45.44100 | 9.28018 | 357 ft | 11 kts | 175° |
| 2026-05-06 15:09 | 45.44020 | 9.28025 | 359 ft | 12 kts | 176° |
| 2026-05-06 15:10 | 45.43938 | 9.28038 | 355 ft | 12 kts | 172° |
| 2026-05-06 15:10 | 45.43854 | 9.28044 | 357 ft | 12 kts | 172° |
| 2026-05-06 15:10 | 45.43768 | 9.28053 | 355 ft | 13 kts | 171° |
| 2026-05-06 15:10 | 45.43681 | 9.28064 | 355 ft | 13 kts | 176° |
| 2026-05-06 15:11 | 45.43591 | 9.28073 | 355 ft | 14 kts | 174° |
| 2026-05-06 15:11 | 45.43491 | 9.28080 | 355 ft | 15 kts | 194° |
| 2026-05-06 15:11 | 45.43443 | 9.27979 | 355 ft | 12 kts | 264° |
| 2026-05-06 15:11 | 45.43441 | 9.27873 | 357 ft | 8 kts | 277° |
| 2026-05-06 15:12 | 45.43476 | 9.27822 | 357 ft | 8 kts | 335° |
| 2026-05-06 15:12 | 45.43612 | 9.27803 | 356 ft | 48 kts | 357° |
| 2026-05-06 15:12 | 45.44205 | 9.27747 | 353 ft | 121 kts | 354° |
| 2026-05-06 15:12 | 45.45209 | 9.27648 | 530 ft | 162 kts | 355° |
| 2026-05-06 15:13 | 45.46373 | 9.27533 | 1033 ft | 175 kts | 3° |
| 2026-05-06 15:13 | 45.47581 | 9.27726 | 1787 ft | 175 kts | 9° |
| 2026-05-06 15:13 | 45.48883 | 9.27916 | 2518 ft | 202 kts | 6° |
| 2026-05-06 15:13 | 45.50351 | 9.28115 | 3284 ft | 222 kts | 6° |
| 2026-05-06 15:14 | 45.51945 | 9.28362 | 4187 ft | 232 kts | 6° |
| 2026-05-06 15:14 | 45.53501 | 9.29001 | 5227 ft | 236 kts | 28° |
| 2026-05-06 15:14 | 45.54931 | 9.30151 | 6246 ft | 241 kts | 29° |
| 2026-05-06 15:14 | 45.56441 | 9.31270 | 7203 ft | 246 kts | 27° |
| 2026-05-06 15:15 | 45.57972 | 9.32404 | 8191 ft | 250 kts | 28° |
| 2026-05-06 15:15 | 45.59523 | 9.33585 | 9405 ft | 255 kts | 28° |
| 2026-05-06 15:15 | 45.61102 | 9.34787 | 10335 ft | 259 kts | 28° |
| 2026-05-06 15:15 | 45.62709 | 9.36001 | 11206 ft | 264 kts | 27° |
| 2026-05-06 15:16 | 45.64354 | 9.37247 | 12078 ft | 269 kts | 27° |
| 2026-05-06 15:16 | 45.66017 | 9.38515 | 12942 ft | 273 kts | 30° |
| 2026-05-06 15:16 | 45.67504 | 9.40214 | 13794 ft | 277 kts | 49° |
| 2026-05-06 15:16 | 45.68681 | 9.42409 | 14553 ft | 280 kts | 56° |
| 2026-05-06 15:17 | 45.69839 | 9.44691 | 15304 ft | 285 kts | 56° |
| 2026-05-06 15:17 | 45.71030 | 9.46993 | 16044 ft | 290 kts | 55° |
| 2026-05-06 15:17 | 45.72220 | 9.49304 | 16624 ft | 295 kts | 56° |
| 2026-05-06 15:17 | 45.73443 | 9.51699 | 17365 ft | 299 kts | 56° |
| 2026-05-06 15:18 | 45.74686 | 9.54126 | 18097 ft | 305 kts | 56° |
| 2026-05-06 15:18 | 45.75737 | 9.56766 | 18750 ft | 306 kts | 72° |
| 2026-05-06 15:18 | 45.76290 | 9.59708 | 19298 ft | 308 kts | 88° |
| 2026-05-06 15:18 | 45.76425 | 9.62759 | 19961 ft | 308 kts | 93° |
| 2026-05-06 15:19 | 45.76589 | 9.65839 | 20608 ft | 313 kts | 90° |
| 2026-05-06 15:19 | 45.76843 | 9.68962 | 21331 ft | 316 kts | 88° |
| 2026-05-06 15:19 | 45.77181 | 9.72096 | 21827 ft | 326 kts | 86° |
| 2026-05-06 15:19 | 45.77590 | 9.75426 | 21833 ft | 350 kts | 85° |
| 2026-05-06 15:20 | 45.78066 | 9.78911 | 21849 ft | 371 kts | 83° |
| 2026-05-06 15:20 | 45.78452 | 9.82624 | 21847 ft | 381 kts | 94° |
| 2026-05-06 15:20 | 45.78299 | 9.86454 | 21854 ft | 388 kts | 102° |
| 2026-05-06 15:20 | 45.78009 | 9.90351 | 21849 ft | 400 kts | 101° |
| 2026-05-06 15:21 | 45.77912 | 9.94374 | 21852 ft | 407 kts | 93° |
| 2026-05-06 15:21 | 45.78175 | 9.98428 | 21855 ft | 409 kts | 88° |
| 2026-05-06 15:21 | 45.78575 | 10.02465 | 21860 ft | 409 kts | 87° |
| 2026-05-06 15:21 | 45.78830 | 10.06519 | 21859 ft | 406 kts | 92° |
| 2026-05-06 15:22 | 45.78906 | 10.10500 | 21864 ft | 405 kts | 94° |
| 2026-05-06 15:22 | 45.79039 | 10.14536 | 21880 ft | 407 kts | 91° |
| 2026-05-06 15:22 | 45.79296 | 10.18586 | 21888 ft | 408 kts | 89° |
| 2026-05-06 15:22 | 45.79541 | 10.22627 | 21887 ft | 406 kts | 91° |
| 2026-05-06 15:23 | 45.79683 | 10.26670 | 21886 ft | 406 kts | 93° |
| 2026-05-06 15:23 | 45.79823 | 10.30715 | 21883 ft | 406 kts | 91° |
| 2026-05-06 15:23 | 45.80030 | 10.34758 | 21880 ft | 407 kts | 90° |
| 2026-05-06 15:23 | 45.80309 | 10.38792 | 21887 ft | 408 kts | 85° |
| 2026-05-06 15:24 | 45.81073 | 10.42747 | 21891 ft | 417 kts | 73° |
| 2026-05-06 15:24 | 45.82309 | 10.46477 | 21927 ft | 420 kts | 62° |
| 2026-05-06 15:24 | 45.83957 | 10.49945 | 21911 ft | 422 kts | 56° |
| 2026-05-06 15:24 | 45.85659 | 10.53385 | 21895 ft | 420 kts | 57° |
| 2026-05-06 15:25 | 45.87304 | 10.56844 | 21900 ft | 421 kts | 58° |
| 2026-05-06 15:25 | 45.88960 | 10.60329 | 21901 ft | 421 kts | 57° |
| 2026-05-06 15:25 | 45.90660 | 10.63757 | 21910 ft | 422 kts | 56° |
| 2026-05-06 15:25 | 45.92366 | 10.67181 | 21910 ft | 421 kts | 57° |
| 2026-05-06 15:26 | 45.94039 | 10.70649 | 21906 ft | 420 kts | 57° |
| 2026-05-06 15:26 | 45.95699 | 10.74123 | 21912 ft | 420 kts | 57° |
| 2026-05-06 15:26 | 45.97379 | 10.77571 | 21910 ft | 421 kts | 57° |
| 2026-05-06 15:26 | 45.99052 | 10.80978 | 21903 ft | 420 kts | 57° |
| 2026-05-06 15:27 | 46.00711 | 10.84410 | 21907 ft | 419 kts | 57° |
| 2026-05-06 15:27 | 46.02367 | 10.87874 | 21915 ft | 421 kts | 57° |
| 2026-05-06 15:27 | 46.04045 | 10.91345 | 21914 ft | 421 kts | 57° |
| 2026-05-06 15:27 | 46.05715 | 10.94784 | 21932 ft | 419 kts | 57° |
| 2026-05-06 15:28 | 46.07380 | 10.98255 | 21927 ft | 419 kts | 57° |
| 2026-05-06 15:28 | 46.09044 | 11.01722 | 21785 ft | 424 kts | 57° |
| 2026-05-06 15:28 | 46.10720 | 11.05201 | 21530 ft | 420 kts | 57° |
| 2026-05-06 15:28 | 46.12376 | 11.08644 | 21268 ft | 415 kts | 57° |
| 2026-05-06 15:29 | 46.14000 | 11.12039 | 20417 ft | 417 kts | 57° |
| 2026-05-06 15:29 | 46.15626 | 11.15441 | 19474 ft | 408 kts | 57° |
| 2026-05-06 15:29 | 46.17230 | 11.18794 | 18515 ft | 402 kts | 57° |
| 2026-05-06 15:29 | 46.18783 | 11.22049 | 17577 ft | 385 kts | 58° |
| 2026-05-06 15:30 | 46.20232 | 11.25180 | 16958 ft | 364 kts | 63° |
| 2026-05-06 15:30 | 46.21130 | 11.28483 | 16960 ft | 348 kts | 80° |
| 2026-05-06 15:30 | 46.21465 | 11.31899 | 16958 ft | 341 kts | 95° |
| 2026-05-06 15:30 | 46.21236 | 11.35271 | 16942 ft | 334 kts | 108° |
| 2026-05-06 15:31 | 46.20520 | 11.38334 | 16940 ft | 307 kts | 122° |
| 2026-05-06 15:31 | 46.19491 | 11.40844 | 16914 ft | 277 kts | 134° |
| 2026-05-06 15:31 | 46.18251 | 11.42850 | 16913 ft | 263 kts | 144° |
| 2026-05-06 15:32 | 46.15267 | 11.45630 | 16910 ft | 251 kts | 164° |
| 2026-05-06 15:32 | 46.13664 | 11.46395 | 16909 ft | 236 kts | 170° |
| 2026-05-06 15:32 | 46.12124 | 11.47058 | 16923 ft | 222 kts | 169° |
| 2026-05-06 15:32 | 46.10654 | 11.47709 | 16918 ft | 222 kts | 170° |
| 2026-05-06 15:33 | 46.09157 | 11.48258 | 16913 ft | 222 kts | 177° |
| 2026-05-06 15:33 | 46.07641 | 11.48352 | 16913 ft | 221 kts | 187° |
| 2026-05-06 15:33 | 46.06124 | 11.47993 | 16914 ft | 221 kts | 198° |
| 2026-05-06 15:33 | 46.04658 | 11.47165 | 16418 ft | 229 kts | 209° |
| 2026-05-06 15:34 | 46.03356 | 11.45898 | 15912 ft | 224 kts | 219° |
| 2026-05-06 15:34 | 46.02286 | 11.44281 | 15410 ft | 224 kts | 230° |
| 2026-05-06 15:34 | 46.01478 | 11.42373 | 14916 ft | 223 kts | 240° |
| 2026-05-06 15:34 | 46.00964 | 11.40251 | 14440 ft | 226 kts | 252° |
| 2026-05-06 15:35 | 46.00777 | 11.37991 | 13968 ft | 230 kts | 264° |
| 2026-05-06 15:35 | 46.00922 | 11.35734 | 13918 ft | 225 kts | 271° |
| 2026-05-06 15:35 | 46.01110 | 11.33467 | 13924 ft | 230 kts | 270° |
| 2026-05-06 15:35 | 46.01289 | 11.31177 | 13928 ft | 235 kts | 270° |
| 2026-05-06 15:36 | 46.01484 | 11.28838 | 13930 ft | 235 kts | 270° |
| 2026-05-06 15:36 | 46.01681 | 11.26510 | 13925 ft | 234 kts | 271° |
| 2026-05-06 15:36 | 46.01874 | 11.24156 | 13683 ft | 240 kts | 270° |
| 2026-05-06 15:36 | 46.02247 | 11.21819 | 13279 ft | 241 kts | 284° |
| 2026-05-06 15:37 | 46.03006 | 11.19662 | 12893 ft | 244 kts | 297° |
| 2026-05-06 15:37 | 46.04112 | 11.17833 | 12513 ft | 248 kts | 311° |
| 2026-05-06 15:37 | 46.05547 | 11.16409 | 12156 ft | 253 kts | 327° |
| 2026-05-06 15:37 | 46.07216 | 11.15557 | 11936 ft | 254 kts | 343° |
| 2026-05-06 15:38 | 46.08987 | 11.15343 | 11939 ft | 261 kts | 360° |
| 2026-05-06 15:38 | 46.10807 | 11.15807 | 11637 ft | 271 kts | 15° |
| 2026-05-06 15:38 | 46.12597 | 11.16594 | 10889 ft | 264 kts | 13° |
| 2026-05-06 15:38 | 46.14308 | 11.17229 | 10169 ft | 257 kts | 12° |
| 2026-05-06 15:39 | 46.16042 | 11.17877 | 9892 ft | 244 kts | 16° |
| 2026-05-06 15:39 | 46.17645 | 11.18850 | 9807 ft | 254 kts | 26° |
| 2026-05-06 15:39 | 46.19189 | 11.19958 | 10125 ft | 248 kts | 19° |
| 2026-05-06 15:39 | 46.20856 | 11.20314 | 10001 ft | 231 kts | 358° |
| 2026-05-06 15:40 | 46.22412 | 11.20519 | 9489 ft | 223 kts | 7° |
| 2026-05-06 15:40 | 46.23913 | 11.20965 | 8701 ft | 217 kts | 11° |
| 2026-05-06 15:40 | 46.25324 | 11.21705 | 7932 ft | 214 kts | 22° |
| 2026-05-06 15:40 | 46.26673 | 11.22512 | 7121 ft | 213 kts | 22° |
| 2026-05-06 15:41 | 46.28058 | 11.23283 | 6282 ft | 213 kts | 22° |
| 2026-05-06 15:41 | 46.29433 | 11.24040 | 5583 ft | 205 kts | 22° |
| 2026-05-06 15:41 | 46.30714 | 11.24751 | 5200 ft | 192 kts | 22° |
| 2026-05-06 15:41 | 46.31917 | 11.25421 | 4814 ft | 178 kts | 22° |
| 2026-05-06 15:42 | 46.33022 | 11.26037 | 4494 ft | 159 kts | 22° |
| 2026-05-06 15:42 | 46.33979 | 11.26569 | 4447 ft | 143 kts | 22° |
| 2026-05-06 15:42 | 46.34893 | 11.27081 | 4243 ft | 144 kts | 22° |
| 2026-05-06 15:42 | 46.35830 | 11.27607 | 3640 ft | 145 kts | 20° |
| 2026-05-06 15:43 | 46.36782 | 11.28135 | 3149 ft | 148 kts | 21° |
| 2026-05-06 15:43 | 46.37724 | 11.28666 | 2676 ft | 139 kts | 21° |
| 2026-05-06 15:43 | 46.38566 | 11.29127 | 2606 ft | 125 kts | 22° |
| 2026-05-06 15:43 | 46.39382 | 11.29573 | 2627 ft | 128 kts | 22° |
| 2026-05-06 15:44 | 46.40214 | 11.30048 | 2458 ft | 128 kts | 23° |
| 2026-05-06 15:44 | 46.41031 | 11.30537 | 2179 ft | 126 kts | 24° |
| 2026-05-06 15:44 | 46.41821 | 11.31040 | 1873 ft | 124 kts | 26° |
| 2026-05-06 15:44 | 46.42606 | 11.31530 | 1523 ft | 120 kts | 22° |
| 2026-05-06 15:45 | 46.43400 | 11.31941 | 1240 ft | 117 kts | 12° |
| 2026-05-06 15:45 | 46.44160 | 11.32158 | 1042 ft | 111 kts | 9° |
| 2026-05-06 15:45 | 46.44917 | 11.32353 | 877 ft | 108 kts | 11° |
| 2026-05-06 15:45 | 46.45635 | 11.32540 | 784 ft | 95 kts | 11° |
| 2026-05-06 15:46 | 46.46150 | 11.32674 | 784 ft | 42 kts | 10° |
| 2026-05-06 15:46 | 46.46240 | 11.32704 | 783 ft | 6 kts | 53° |
| 2026-05-06 15:46 | 46.46243 | 11.32747 | 783 ft | 3 kts | 97° |
| 2026-05-06 15:46 | 46.46238 | 11.32786 | 783 ft | 4 kts | 101° |
| 2026-05-06 15:47 | 46.46237 | 11.32794 | 782 ft | 0 kts | 99° |
| 2026-05-06 15:47 | 46.46240 | 11.32817 | 782 ft | 7 kts | 46° |
| 2026-05-06 15:47 | 46.46272 | 11.32828 | 782 ft | 4 kts | 11° |
| 2026-05-06 15:47 | 46.46310 | 11.32839 | 782 ft | 6 kts | 10° |
| 2026-05-06 15:48 | 46.46334 | 11.32857 | 782 ft | 3 kts | 89° |
| 2026-05-06 15:48 | 46.46332 | 11.32888 | 782 ft | 1 kts | 60° |
| 2026-05-06 15:48 | 46.46345 | 11.32894 | 782 ft | 2 kts | 4° |
| 2026-05-06 15:48 | 46.46351 | 11.32895 | 782 ft | 0 kts | 10° |